sensor_id;sensor_type;location;lat;lon;timestamp;pressure;altitude;pressure_sealevel;temperature;humidity
74633;BME280;63139;52.018;8.552;2024-03-23T00:54:15;99835.22;;;8.64;100.00
74633;BME280;63139;52.018;8.552;2024-03-23T00:56:42;99830.94;;;8.63;100.00
74633;BME280;63139;52.018;8.552;2024-03-23T00:59:07;99832.09;;;8.61;100.00
74633;BME280;63139;52.018;8.552;2024-03-23T01:01:34;99823.53;;;8.67;100.00
74633;BME280;63139;52.018;8.552;2024-03-23T01:04:00;99822.03;;;8.64;100.00
74633;BME280;63139;52.018;8.552;2024-03-23T01:06:27;99818.25;;;8.67;100.00
74633;BME280;63139;52.018;8.552;2024-03-23T01:08:52;99818.41;;;8.65;100.00
74633;BME280;63139;52.018;8.552;2024-03-23T01:11:20;99818.59;;;8.55;100.00
74633;BME280;63139;52.018;8.552;2024-03-23T01:13:46;99809.16;;;8.61;100.00
74633;BME280;63139;52.018;8.552;2024-03-23T01:16:13;99813.81;;;8.59;100.00
74633;BME280;63139;52.018;8.552;2024-03-23T01:18:39;99810.00;;;8.62;100.00
74633;BME280;63139;52.018;8.552;2024-03-23T01:21:06;99803.06;;;8.61;100.00
74633;BME280;63139;52.018;8.552;2024-03-23T01:23:31;99804.88;;;8.60;100.00
74633;BME280;63139;52.018;8.552;2024-03-23T01:25:58;99798.16;;;8.57;100.00
74633;BME280;63139;52.018;8.552;2024-03-23T01:28:25;99795.69;;;8.56;100.00
74633;BME280;63139;52.018;8.552;2024-03-23T01:30:52;99793.25;;;8.46;100.00
74633;BME280;63139;52.018;8.552;2024-03-23T01:33:18;99785.50;;;8.45;100.00
74633;BME280;63139;52.018;8.552;2024-03-23T01:35:44;99789.16;;;8.44;100.00
74633;BME280;63139;52.018;8.552;2024-03-23T01:38:10;99783.69;;;8.45;100.00
74633;BME280;63139;52.018;8.552;2024-03-23T01:40:37;99782.53;;;8.48;100.00
74633;BME280;63139;52.018;8.552;2024-03-23T01:43:03;99781.69;;;8.47;100.00
74633;BME280;63139;52.018;8.552;2024-03-23T01:45:32;99751.94;;;8.31;100.00
74633;BME280;63139;52.018;8.552;2024-03-23T01:47:58;99777.41;;;8.46;100.00
74633;BME280;63139;52.018;8.552;2024-03-23T01:50:25;99776.94;;;8.43;100.00
74633;BME280;63139;52.018;8.552;2024-03-23T01:52:51;99769.22;;;8.41;100.00
74633;BME280;63139;52.018;8.552;2024-03-23T01:55:18;99754.41;;;8.32;100.00
74633;BME280;63139;52.018;8.552;2024-03-23T01:57:43;99761.13;;;8.43;100.00
74633;BME280;63139;52.018;8.552;2024-03-23T02:00:11;99755.84;;;8.43;100.00
74633;BME280;63139;52.018;8.552;2024-03-23T02:02:42;99760.31;;;8.42;100.00
74633;BME280;63139;52.018;8.552;2024-03-23T02:05:10;99757.84;;;8.41;100.00
74633;BME280;63139;52.018;8.552;2024-03-23T02:07:35;99754.38;;;8.40;100.00
74633;BME280;63139;52.018;8.552;2024-03-23T02:10:03;99749.47;;;8.37;100.00
74633;BME280;63139;52.018;8.552;2024-03-23T02:12:29;99744.19;;;8.37;100.00
74633;BME280;63139;52.018;8.552;2024-03-23T02:14:56;99742.53;;;8.36;100.00
74633;BME280;63139;52.018;8.552;2024-03-23T02:17:22;99736.75;;;8.33;100.00
74633;BME280;63139;52.018;8.552;2024-03-23T02:19:50;99739.56;;;8.31;100.00
74633;BME280;63139;52.018;8.552;2024-03-23T02:22:16;99730.84;;;8.31;100.00
74633;BME280;63139;52.018;8.552;2024-03-23T02:24:44;99740.53;;;8.30;100.00
74633;BME280;63139;52.018;8.552;2024-03-23T02:27:09;99735.63;;;8.27;100.00
74633;BME280;63139;52.018;8.552;2024-03-23T02:29:36;99746.16;;;8.27;100.00
74633;BME280;63139;52.018;8.552;2024-03-23T02:32:02;99732.00;;;8.28;100.00
74633;BME280;63139;52.018;8.552;2024-03-23T02:34:29;99728.84;;;8.25;100.00
74633;BME280;63139;52.018;8.552;2024-03-23T02:36:54;99719.50;;;8.22;100.00
74633;BME280;63139;52.018;8.552;2024-03-23T02:39:21;99723.28;;;8.19;100.00
74633;BME280;63139;52.018;8.552;2024-03-23T02:41:48;99720.16;;;8.16;100.00
74633;BME280;63139;52.018;8.552;2024-03-23T02:44:15;99719.53;;;8.14;100.00
74633;BME280;63139;52.018;8.552;2024-03-23T02:46:42;99709.81;;;8.14;100.00
74633;BME280;63139;52.018;8.552;2024-03-23T02:49:09;99717.06;;;8.12;100.00
74633;BME280;63139;52.018;8.552;2024-03-23T02:51:34;99717.88;;;8.13;100.00
74633;BME280;63139;52.018;8.552;2024-03-23T02:54:01;99718.03;;;8.11;100.00
74633;BME280;63139;52.018;8.552;2024-03-23T02:56:28;99715.56;;;8.10;100.00
74633;BME280;63139;52.018;8.552;2024-03-23T02:58:56;99679.91;;;7.91;100.00
74633;BME280;63139;52.018;8.552;2024-03-23T03:01:22;99701.28;;;8.04;100.00
74633;BME280;63139;52.018;8.552;2024-03-23T03:03:49;99710.00;;;8.05;100.00
74633;BME280;63139;52.018;8.552;2024-03-23T03:06:22;99702.09;;;8.05;100.00
74633;BME280;63139;52.018;8.552;2024-03-23T03:08:49;99703.91;;;8.04;100.00
74633;BME280;63139;52.018;8.552;2024-03-23T03:11:15;99689.91;;;8.04;100.00
74633;BME280;63139;52.018;8.552;2024-03-23T03:13:42;99685.47;;;8.04;100.00
74633;BME280;63139;52.018;8.552;2024-03-23T03:16:09;99689.41;;;8.00;100.00
74633;BME280;63139;52.018;8.552;2024-03-23T03:18:36;99686.78;;;8.00;100.00
74633;BME280;63139;52.018;8.552;2024-03-23T03:21:02;99692.25;;;7.99;100.00
74633;BME280;63139;52.018;8.552;2024-03-23T03:23:30;99698.50;;;7.98;100.00
74633;BME280;63139;52.018;8.552;2024-03-23T03:25:56;99689.94;;;7.96;100.00
74633;BME280;63139;52.018;8.552;2024-03-23T03:28:23;99695.38;;;7.94;100.00
74633;BME280;63139;52.018;8.552;2024-03-23T03:30:49;99689.94;;;7.96;100.00
74633;BME280;63139;52.018;8.552;2024-03-23T03:33:17;99685.47;;;7.96;100.00
74633;BME280;63139;52.018;8.552;2024-03-23T03:35:43;99686.31;;;7.97;100.00
74633;BME280;63139;52.018;8.552;2024-03-23T03:38:11;99691.44;;;7.90;100.00
74633;BME280;63139;52.018;8.552;2024-03-23T03:40:36;99677.44;;;7.90;100.00
74633;BME280;63139;52.018;8.552;2024-03-23T03:43:03;99678.09;;;7.92;100.00
74633;BME280;63139;52.018;8.552;2024-03-23T03:45:29;99673.31;;;7.87;100.00
74633;BME280;63139;52.018;8.552;2024-03-23T03:47:56;99664.47;;;7.80;100.00
74633;BME280;63139;52.018;8.552;2024-03-23T03:50:23;99675.34;;;7.85;100.00
74633;BME280;63139;52.018;8.552;2024-03-23T03:52:50;99678.97;;;7.84;100.00
74633;BME280;63139;52.018;8.552;2024-03-23T03:55:15;99681.59;;;7.84;100.00
74633;BME280;63139;52.018;8.552;2024-03-23T03:57:42;99672.72;;;7.77;100.00
74633;BME280;63139;52.018;8.552;2024-03-23T04:00:08;99667.63;;;7.75;100.00
74633;BME280;63139;52.018;8.552;2024-03-23T04:02:36;99669.75;;;7.72;100.00
74633;BME280;63139;52.018;8.552;2024-03-23T04:05:03;99659.56;;;7.69;100.00
74633;BME280;63139;52.018;8.552;2024-03-23T04:07:31;99664.84;;;7.69;100.00
74633;BME280;63139;52.018;8.552;2024-03-23T04:09:56;99667.81;;;7.66;100.00
74633;BME280;63139;52.018;8.552;2024-03-23T04:12:23;99663.69;;;7.63;100.00
74633;BME280;63139;52.018;8.552;2024-03-23T04:14:49;99667.16;;;7.64;100.00
74633;BME280;63139;52.018;8.552;2024-03-23T04:17:16;99663.88;;;7.62;100.00
74633;BME280;63139;52.018;8.552;2024-03-23T04:19:42;99665.72;;;7.53;100.00
74633;BME280;63139;52.018;8.552;2024-03-23T04:22:09;99679.03;;;7.52;100.00
74633;BME280;63139;52.018;8.552;2024-03-23T04:24:36;99679.19;;;7.50;100.00
74633;BME280;63139;52.018;8.552;2024-03-23T04:27:03;99679.38;;;7.49;100.00
74633;BME280;63139;52.018;8.552;2024-03-23T04:29:29;99668.19;;;7.47;100.00
74633;BME280;63139;52.018;8.552;2024-03-23T04:31:56;99664.91;;;7.45;100.00
74633;BME280;63139;52.018;8.552;2024-03-23T04:34:22;99660.16;;;7.40;100.00
74633;BME280;63139;52.018;8.552;2024-03-23T04:36:49;99663.59;;;7.40;100.00
74633;BME280;63139;52.018;8.552;2024-03-23T04:39:15;99660.31;;;7.38;100.00
74633;BME280;63139;52.018;8.552;2024-03-23T04:41:44;99669.34;;;7.36;100.00
74633;BME280;63139;52.018;8.552;2024-03-23T04:44:10;99669.53;;;7.34;100.00
74633;BME280;63139;52.018;8.552;2024-03-23T04:46:36;99671.53;;;7.32;100.00
74633;BME280;63139;52.018;8.552;2024-03-23T04:49:03;99669.88;;;7.31;100.00
74633;BME280;63139;52.018;8.552;2024-03-23T04:51:35;99669.22;;;7.29;100.00
74633;BME280;63139;52.018;8.552;2024-03-23T04:54:00;99667.41;;;7.30;100.00
74633;BME280;63139;52.018;8.552;2024-03-23T04:56:30;99663.78;;;7.31;100.00
74633;BME280;63139;52.018;8.552;2024-03-23T04:58:58;99656.72;;;7.31;100.00
74633;BME280;63139;52.018;8.552;2024-03-23T05:01:27;99654.41;;;7.28;100.00
74633;BME280;63139;52.018;8.552;2024-03-23T05:03:52;99650.47;;;7.32;100.00
74633;BME280;63139;52.018;8.552;2024-03-23T05:06:19;99647.63;;;7.34;100.00
74633;BME280;63139;52.018;8.552;2024-03-23T05:08:45;99639.09;;;7.32;100.00
74633;BME280;63139;52.018;8.552;2024-03-23T05:11:13;99621.31;;;7.34;100.00
74633;BME280;63139;52.018;8.552;2024-03-23T05:13:39;99625.59;;;7.35;100.00
74633;BME280;63139;52.018;8.552;2024-03-23T05:16:08;99594.84;;;7.19;100.00
74633;BME280;63139;52.018;8.552;2024-03-23T05:18:34;99623.31;;;7.32;100.00
74633;BME280;63139;52.018;8.552;2024-03-23T05:21:01;99638.28;;;7.31;100.00
74633;BME280;63139;52.018;8.552;2024-03-23T05:23:27;99637.78;;;7.28;100.00
74633;BME280;63139;52.018;8.552;2024-03-23T05:25:54;99635.31;;;7.26;100.00
74633;BME280;63139;52.018;8.552;2024-03-23T05:28:20;99637.16;;;7.26;100.00
74633;BME280;63139;52.018;8.552;2024-03-23T05:30:50;99636.94;;;7.27;100.00
74633;BME280;63139;52.018;8.552;2024-03-23T05:33:17;99636.31;;;7.25;100.00
74633;BME280;63139;52.018;8.552;2024-03-23T05:35:43;99624.00;;;7.18;100.00
74633;BME280;63139;52.018;8.552;2024-03-23T05:38:09;99642.22;;;7.27;100.00
74633;BME280;63139;52.018;8.552;2024-03-23T05:40:36;99644.69;;;7.29;100.00
74633;BME280;63139;52.018;8.552;2024-03-23T05:43:05;99652.44;;;7.30;100.00
74633;BME280;63139;52.018;8.552;2024-03-23T05:45:32;99638.13;;;7.25;100.00
74633;BME280;63139;52.018;8.552;2024-03-23T05:47:57;99648.13;;;7.46;100.00
74633;BME280;63139;52.018;8.552;2024-03-23T05:50:26;99639.22;;;7.47;100.00
74633;BME280;63139;52.018;8.552;2024-03-23T05:52:51;99637.44;;;7.39;100.00
74633;BME280;63139;52.018;8.552;2024-03-23T05:55:18;99629.88;;;7.36;100.00
74633;BME280;63139;52.018;8.552;2024-03-23T05:57:44;99637.75;;;7.44;100.00
74633;BME280;63139;52.018;8.552;2024-03-23T06:00:11;99642.88;;;7.37;100.00
74633;BME280;63139;52.018;8.552;2024-03-23T06:02:41;99645.50;;;7.37;100.00
74633;BME280;63139;52.018;8.552;2024-03-23T06:05:09;99645.66;;;7.36;100.00
74633;BME280;63139;52.018;8.552;2024-03-23T06:07:37;99645.19;;;7.40;100.00
74633;BME280;63139;52.018;8.552;2024-03-23T06:10:04;99647.75;;;7.49;100.00
74633;BME280;63139;52.018;8.552;2024-03-23T06:12:30;99648.41;;;7.51;100.00
74633;BME280;63139;52.018;8.552;2024-03-23T06:14:56;99646.28;;;7.54;100.00
74633;BME280;63139;52.018;8.552;2024-03-23T06:17:22;99653.66;;;7.59;100.00
74633;BME280;63139;52.018;8.552;2024-03-23T06:19:49;99663.19;;;7.68;100.00
74633;BME280;63139;52.018;8.552;2024-03-23T06:22:15;99651.97;;;7.74;100.00
74633;BME280;63139;52.018;8.552;2024-03-23T06:24:43;99652.25;;;7.87;100.00
74633;BME280;63139;52.018;8.552;2024-03-23T06:27:09;99655.50;;;7.97;100.00
74633;BME280;63139;52.018;8.552;2024-03-23T06:29:36;99652.00;;;8.05;100.00
74633;BME280;63139;52.018;8.552;2024-03-23T06:32:02;99661.81;;;8.19;100.00
74633;BME280;63139;52.018;8.552;2024-03-23T06:34:29;99660.13;;;8.26;100.00
74633;BME280;63139;52.018;8.552;2024-03-23T06:36:55;99651.38;;;8.34;100.00
74633;BME280;63139;52.018;8.552;2024-03-23T06:39:22;99653.16;;;8.41;100.00
74633;BME280;63139;52.018;8.552;2024-03-23T06:41:52;99644.75;;;8.38;100.00
74633;BME280;63139;52.018;8.552;2024-03-23T06:44:19;99639.81;;;8.43;100.00
74633;BME280;63139;52.018;8.552;2024-03-23T06:46:46;99637.00;;;8.44;100.00
74633;BME280;63139;52.018;8.552;2024-03-23T06:49:13;99644.25;;;8.42;100.00
74633;BME280;63139;52.018;8.552;2024-03-23T06:51:40;99642.78;;;8.40;100.00
74633;BME280;63139;52.018;8.552;2024-03-23T06:54:06;99649.56;;;8.34;100.00
74633;BME280;63139;52.018;8.552;2024-03-23T06:56:33;99650.56;;;8.33;100.00
74633;BME280;63139;52.018;8.552;2024-03-23T06:59:00;99648.22;;;8.30;100.00
74633;BME280;63139;52.018;8.552;2024-03-23T07:01:27;99646.47;;;8.23;100.00
74633;BME280;63139;52.018;8.552;2024-03-23T07:03:54;99649.59;;;8.26;100.00
74633;BME280;63139;52.018;8.552;2024-03-23T07:06:21;99646.81;;;8.19;100.00
74633;BME280;63139;52.018;8.552;2024-03-23T07:08:46;99658.41;;;8.10;100.00
74633;BME280;63139;52.018;8.552;2024-03-23T07:11:18;99662.19;;;8.08;100.00
74633;BME280;63139;52.018;8.552;2024-03-23T07:13:43;99661.69;;;8.12;100.00
74633;BME280;63139;52.018;8.552;2024-03-23T07:16:12;99658.22;;;8.12;100.00
74633;BME280;63139;52.018;8.552;2024-03-23T07:18:38;99662.56;;;8.05;100.00
74633;BME280;63139;52.018;8.552;2024-03-23T07:21:05;99659.72;;;8.14;100.00
74633;BME280;63139;52.018;8.552;2024-03-23T07:23:32;99652.22;;;8.34;100.00
74633;BME280;63139;52.018;8.552;2024-03-23T07:26:00;99658.06;;;8.67;100.00
74633;BME280;63139;52.018;8.552;2024-03-23T07:28:26;99655.56;;;8.97;100.00
74633;BME280;63139;52.018;8.552;2024-03-23T07:31:01;99663.34;;;9.27;100.00
74633;BME280;63139;52.018;8.552;2024-03-23T07:33:29;99646.41;;;9.22;100.00
74633;BME280;63139;52.018;8.552;2024-03-23T07:35:55;99654.41;;;9.28;100.00
74633;BME280;63139;52.018;8.552;2024-03-23T07:38:21;99653.50;;;9.21;100.00
74633;BME280;63139;52.018;8.552;2024-03-23T07:40:48;99655.31;;;9.21;100.00
74633;BME280;63139;52.018;8.552;2024-03-23T07:43:15;99665.94;;;9.65;100.00
74633;BME280;63139;52.018;8.552;2024-03-23T07:45:42;99671.94;;;9.88;100.00
74633;BME280;63139;52.018;8.552;2024-03-23T07:48:08;99668.13;;;9.76;100.00
74633;BME280;63139;52.018;8.552;2024-03-23T07:50:36;99642.69;;;9.75;100.00
74633;BME280;63139;52.018;8.552;2024-03-23T07:53:02;99668.84;;;9.99;100.00
74633;BME280;63139;52.018;8.552;2024-03-23T07:55:29;99663.72;;;10.12;100.00
74633;BME280;63139;52.018;8.552;2024-03-23T07:57:54;99662.53;;;9.86;100.00
74633;BME280;63139;52.018;8.552;2024-03-23T08:00:21;99662.53;;;10.00;100.00
74633;BME280;63139;52.018;8.552;2024-03-23T08:02:47;99661.13;;;10.34;100.00
74633;BME280;63139;52.018;8.552;2024-03-23T08:05:17;99663.25;;;10.24;100.00
74633;BME280;63139;52.018;8.552;2024-03-23T08:07:45;99659.06;;;10.29;100.00
74633;BME280;63139;52.018;8.552;2024-03-23T08:10:11;99661.56;;;10.52;100.00
74633;BME280;63139;52.018;8.552;2024-03-23T08:12:38;99656.56;;;10.85;100.00
74633;BME280;63139;52.018;8.552;2024-03-23T08:15:05;99661.78;;;10.78;100.00
74633;BME280;63139;52.018;8.552;2024-03-23T08:17:32;99645.91;;;10.78;100.00
74633;BME280;63139;52.018;8.552;2024-03-23T08:19:58;99652.03;;;10.79;100.00
74633;BME280;63139;52.018;8.552;2024-03-23T08:22:24;99665.13;;;10.87;100.00
74633;BME280;63139;52.018;8.552;2024-03-23T08:24:52;99662.66;;;10.85;100.00
74633;BME280;63139;52.018;8.552;2024-03-23T08:27:18;99657.53;;;11.05;100.00
74633;BME280;63139;52.018;8.552;2024-03-23T08:29:45;99660.50;;;11.17;100.00
74633;BME280;63139;52.018;8.552;2024-03-23T08:32:11;99642.09;;;11.09;100.00
74633;BME280;63139;52.018;8.552;2024-03-23T08:34:39;99657.59;;;11.40;100.00
74633;BME280;63139;52.018;8.552;2024-03-23T08:37:05;99651.19;;;11.55;100.00
74633;BME280;63139;52.018;8.552;2024-03-23T08:39:31;99642.75;;;11.45;97.52
74633;BME280;63139;52.018;8.552;2024-03-23T08:41:59;99649.94;;;11.23;94.92
74633;BME280;63139;52.018;8.552;2024-03-23T08:44:25;99650.91;;;11.16;94.82
74633;BME280;63139;52.018;8.552;2024-03-23T08:46:52;99638.84;;;11.41;92.36
74633;BME280;63139;52.018;8.552;2024-03-23T08:49:22;99646.41;;;11.44;93.42
74633;BME280;63139;52.018;8.552;2024-03-23T08:51:48;99632.66;;;11.62;90.77
74633;BME280;63139;52.018;8.552;2024-03-23T08:54:14;99643.25;;;11.55;91.48
74633;BME280;63139;52.018;8.552;2024-03-23T08:56:40;99639.47;;;11.43;84.29
74633;BME280;63139;52.018;8.552;2024-03-23T08:59:08;99651.38;;;11.54;83.23
74633;BME280;63139;52.018;8.552;2024-03-23T09:01:34;99639.88;;;11.40;83.92
74633;BME280;63139;52.018;8.552;2024-03-23T09:04:01;99655.19;;;11.45;85.17
74633;BME280;63139;52.018;8.552;2024-03-23T09:06:26;99650.56;;;11.53;85.14
74633;BME280;63139;52.018;8.552;2024-03-23T09:08:53;99647.13;;;11.59;83.91
74633;BME280;63139;52.018;8.552;2024-03-23T09:11:19;99657.34;;;11.35;81.67
74633;BME280;63139;52.018;8.552;2024-03-23T09:13:46;99648.75;;;11.26;81.12
74633;BME280;63139;52.018;8.552;2024-03-23T09:16:13;99646.84;;;11.20;83.09
74633;BME280;63139;52.018;8.552;2024-03-23T09:18:39;99645.47;;;10.96;83.10
74633;BME280;63139;52.018;8.552;2024-03-23T09:21:10;99647.41;;;10.87;86.07
74633;BME280;63139;52.018;8.552;2024-03-23T09:23:38;99631.72;;;10.65;88.56
74633;BME280;63139;52.018;8.552;2024-03-23T09:26:04;99641.44;;;10.79;87.97
74633;BME280;63139;52.018;8.552;2024-03-23T09:28:32;99647.56;;;10.79;88.58
74633;BME280;63139;52.018;8.552;2024-03-23T09:31:01;99648.44;;;10.65;86.85
74633;BME280;63139;52.018;8.552;2024-03-23T09:33:30;99644.44;;;10.55;87.47
74633;BME280;63139;52.018;8.552;2024-03-23T09:35:56;99666.84;;;10.52;88.50
74633;BME280;63139;52.018;8.552;2024-03-23T09:38:23;99655.56;;;10.43;87.25
74633;BME280;63139;52.018;8.552;2024-03-23T09:40:50;99658.78;;;10.24;87.65
74633;BME280;63139;52.018;8.552;2024-03-23T09:43:19;99661.72;;;10.15;90.05
74633;BME280;63139;52.018;8.552;2024-03-23T09:45:45;99654.06;;;10.05;89.24
74633;BME280;63139;52.018;8.552;2024-03-23T09:48:12;99659.88;;;10.15;92.51
74633;BME280;63139;52.018;8.552;2024-03-23T09:50:39;99655.78;;;10.27;92.53
74633;BME280;63139;52.018;8.552;2024-03-23T09:53:06;99639.16;;;10.55;92.21
74633;BME280;63139;52.018;8.552;2024-03-23T09:55:33;99637.09;;;10.50;88.26
74633;BME280;63139;52.018;8.552;2024-03-23T09:58:00;99638.16;;;10.56;85.24
74633;BME280;63139;52.018;8.552;2024-03-23T10:00:26;99626.59;;;10.84;85.85
74633;BME280;63139;52.018;8.552;2024-03-23T10:02:54;99634.09;;;11.30;81.33
74633;BME280;63139;52.018;8.552;2024-03-23T10:05:21;99612.09;;;11.36;74.83
74633;BME280;63139;52.018;8.552;2024-03-23T10:07:50;99631.19;;;11.53;74.22
74633;BME280;63139;52.018;8.552;2024-03-23T10:10:16;99627.22;;;11.70;74.91
74633;BME280;63139;52.018;8.552;2024-03-23T10:12:44;99626.97;;;11.72;71.90
74633;BME280;63139;52.018;8.552;2024-03-23T10:15:13;99625.44;;;11.49;71.41
74633;BME280;63139;52.018;8.552;2024-03-23T10:17:41;99626.41;;;11.42;73.45
74633;BME280;63139;52.018;8.552;2024-03-23T10:20:09;99628.66;;;11.38;74.40
74633;BME280;63139;52.018;8.552;2024-03-23T10:22:36;99620.06;;;11.36;73.45
74633;BME280;63139;52.018;8.552;2024-03-23T10:25:08;99624.00;;;11.19;73.64
74633;BME280;63139;52.018;8.552;2024-03-23T10:27:35;99624.19;;;11.45;73.29
74633;BME280;63139;52.018;8.552;2024-03-23T10:30:07;99625.28;;;11.57;73.75
74633;BME280;63139;52.018;8.552;2024-03-23T10:32:34;99619.13;;;11.50;74.43
74633;BME280;63139;52.018;8.552;2024-03-23T10:35:13;99610.31;;;11.43;74.46
74633;BME280;63139;52.018;8.552;2024-03-23T10:37:40;99618.31;;;11.50;73.84
74633;BME280;63139;52.018;8.552;2024-03-23T10:40:08;99608.50;;;11.44;74.17
74633;BME280;63139;52.018;8.552;2024-03-23T10:42:36;99617.69;;;11.48;75.01
74633;BME280;63139;52.018;8.552;2024-03-23T10:45:04;99622.88;;;11.62;76.17
74633;BME280;63139;52.018;8.552;2024-03-23T10:47:31;99616.31;;;11.58;74.90
74633;BME280;63139;52.018;8.552;2024-03-23T10:49:57;99614.72;;;11.29;75.71
74633;BME280;63139;52.018;8.552;2024-03-23T10:52:24;99616.94;;;10.98;75.76
74633;BME280;63139;52.018;8.552;2024-03-23T10:54:51;99612.50;;;11.05;76.48
74633;BME280;63139;52.018;8.552;2024-03-23T10:57:20;99622.78;;;11.15;76.37
74633;BME280;63139;52.018;8.552;2024-03-23T10:59:47;99606.84;;;11.08;77.71
74633;BME280;63139;52.018;8.552;2024-03-23T11:02:18;99618.63;;;11.06;78.09
74633;BME280;63139;52.018;8.552;2024-03-23T11:04:44;99612.72;;;11.04;76.19
74633;BME280;63139;52.018;8.552;2024-03-23T11:07:29;99609.19;;;10.97;76.57
74633;BME280;63139;52.018;8.552;2024-03-23T11:09:55;99604.13;;;11.02;73.87
74633;BME280;63139;52.018;8.552;2024-03-23T11:12:32;99602.88;;;10.98;71.46
74633;BME280;63139;52.018;8.552;2024-03-23T11:15:00;99594.22;;;11.10;70.73
74633;BME280;63139;52.018;8.552;2024-03-23T11:17:27;99603.38;;;11.42;72.35
74633;BME280;63139;52.018;8.552;2024-03-23T11:19:56;99605.38;;;11.68;70.79
74633;BME280;63139;52.018;8.552;2024-03-23T11:22:38;99610.00;;;12.00;69.25
74633;BME280;63139;52.018;8.552;2024-03-23T11:25:12;99600.94;;;12.49;68.05
74633;BME280;63139;52.018;8.552;2024-03-23T11:27:40;99604.63;;;12.55;68.00
74633;BME280;63139;52.018;8.552;2024-03-23T11:30:09;99624.63;;;11.83;67.00
74633;BME280;63139;52.018;8.552;2024-03-23T11:32:36;99623.38;;;11.10;64.61
74633;BME280;63139;52.018;8.552;2024-03-23T11:35:02;99619.97;;;11.23;65.08
74633;BME280;63139;52.018;8.552;2024-03-23T11:37:29;99613.63;;;11.17;64.53
74633;BME280;63139;52.018;8.552;2024-03-23T11:39:55;99617.34;;;11.23;65.91
74633;BME280;63139;52.018;8.552;2024-03-23T11:42:22;99612.94;;;11.37;66.75
74633;BME280;63139;52.018;8.552;2024-03-23T11:44:49;99616.66;;;11.14;66.55
74633;BME280;63139;52.018;8.552;2024-03-23T11:47:16;99616.13;;;10.98;68.61
74633;BME280;63139;52.018;8.552;2024-03-23T11:49:42;99609.34;;;10.67;69.96
74633;BME280;63139;52.018;8.552;2024-03-23T11:52:08;99614.50;;;10.33;71.46
74633;BME280;63139;52.018;8.552;2024-03-23T11:54:34;99617.22;;;10.03;72.50
74633;BME280;63139;52.018;8.552;2024-03-23T11:57:02;99617.91;;;9.76;72.86
74633;BME280;63139;52.018;8.552;2024-03-23T11:59:30;99616.59;;;9.87;74.08
74633;BME280;63139;52.018;8.552;2024-03-23T12:01:58;99609.81;;;9.63;75.01
74633;BME280;63139;52.018;8.552;2024-03-23T12:04:25;99604.06;;;9.45;76.51
74633;BME280;63139;52.018;8.552;2024-03-23T12:06:51;99599.59;;;9.45;77.67
74633;BME280;63139;52.018;8.552;2024-03-23T12:09:35;99600.94;;;9.41;79.07
74633;BME280;63139;52.018;8.552;2024-03-23T12:12:05;99598.88;;;9.51;79.24
74633;BME280;63139;52.018;8.552;2024-03-23T12:14:31;99599.69;;;9.52;78.34
74633;BME280;63139;52.018;8.552;2024-03-23T12:17:08;99595.13;;;9.60;78.88
74633;BME280;63139;52.018;8.552;2024-03-23T12:19:34;99600.25;;;9.62;79.56
74633;BME280;63139;52.018;8.552;2024-03-23T12:22:00;99589.53;;;9.85;79.36
74633;BME280;63139;52.018;8.552;2024-03-23T12:24:27;99585.66;;;10.38;78.64
74633;BME280;63139;52.018;8.552;2024-03-23T12:26:53;99566.69;;;10.56;75.07
74633;BME280;63139;52.018;8.552;2024-03-23T12:29:20;99576.38;;;10.70;74.55
74633;BME280;63139;52.018;8.552;2024-03-23T12:31:46;99571.28;;;10.68;75.91
74633;BME280;63139;52.018;8.552;2024-03-23T12:34:15;99597.63;;;10.34;74.32
74633;BME280;63139;52.018;8.552;2024-03-23T12:36:40;99587.69;;;10.36;70.08
74633;BME280;63139;52.018;8.552;2024-03-23T12:39:07;99600.66;;;10.73;68.10
74633;BME280;63139;52.018;8.552;2024-03-23T12:41:33;99612.91;;;11.02;65.72
74633;BME280;63139;52.018;8.552;2024-03-23T12:43:59;99606.59;;;11.03;64.00
74633;BME280;63139;52.018;8.552;2024-03-23T12:46:25;99607.75;;;10.94;65.12
74633;BME280;63139;52.018;8.552;2024-03-23T12:48:52;99603.97;;;10.82;67.31
74633;BME280;63139;52.018;8.552;2024-03-23T12:51:19;99605.97;;;10.52;66.97
74633;BME280;63139;52.018;8.552;2024-03-23T12:53:46;99613.16;;;10.58;68.67
74633;BME280;63139;52.018;8.552;2024-03-23T12:56:12;99605.31;;;10.50;70.49
74633;BME280;63139;52.018;8.552;2024-03-23T12:58:39;99602.41;;;10.45;71.45
74633;BME280;63139;52.018;8.552;2024-03-23T13:01:05;99591.56;;;10.19;70.62
74633;BME280;63139;52.018;8.552;2024-03-23T13:03:32;99592.66;;;10.09;71.62
74633;BME280;63139;52.018;8.552;2024-03-23T13:05:57;99610.84;;;9.98;73.27
74633;BME280;63139;52.018;8.552;2024-03-23T13:08:25;99610.88;;;9.83;71.60
74633;BME280;63139;52.018;8.552;2024-03-23T13:10:51;99610.88;;;9.83;72.11
74633;BME280;63139;52.018;8.552;2024-03-23T13:13:18;99596.84;;;9.83;71.49
74633;BME280;63139;52.018;8.552;2024-03-23T13:15:49;99607.91;;;10.07;70.89
74633;BME280;63139;52.018;8.552;2024-03-23T13:18:16;99619.03;;;10.39;69.89
74633;BME280;63139;52.018;8.552;2024-03-23T13:20:41;99615.53;;;10.74;68.88
74633;BME280;63139;52.018;8.552;2024-03-23T13:23:08;99614.22;;;10.92;68.20
74633;BME280;63139;52.018;8.552;2024-03-23T13:25:35;99634.19;;;10.87;67.23
74633;BME280;63139;52.018;8.552;2024-03-23T13:28:02;99626.38;;;10.58;68.14
74633;BME280;63139;52.018;8.552;2024-03-23T13:30:29;99628.31;;;10.28;69.14
74633;BME280;63139;52.018;8.552;2024-03-23T13:32:56;99634.38;;;9.93;69.33
74633;BME280;63139;52.018;8.552;2024-03-23T13:35:21;99663.75;;;9.54;71.21
74633;BME280;63139;52.018;8.552;2024-03-23T13:37:49;99638.06;;;9.62;74.25
74633;BME280;63139;52.018;8.552;2024-03-23T13:40:15;99638.88;;;9.63;73.62
74633;BME280;63139;52.018;8.552;2024-03-23T13:42:43;99660.63;;;9.50;75.34
74633;BME280;63139;52.018;8.552;2024-03-23T13:45:09;99664.09;;;9.36;76.28
74633;BME280;63139;52.018;8.552;2024-03-23T13:47:43;99634.22;;;9.35;78.40
74633;BME280;63139;52.018;8.552;2024-03-23T13:50:09;99654.09;;;9.61;81.95
74633;BME280;63139;52.018;8.552;2024-03-23T13:52:36;99646.59;;;9.64;81.60